createdAt,value
2022-10-01T00:02:28.763Z,99815.75
2022-10-01T00:05:30.593Z,99795.94
2022-10-01T00:08:33.147Z,99793.81
2022-10-01T00:11:35.154Z,99786.06
2022-10-01T00:14:39.380Z,99785.69
2022-10-01T00:17:41.819Z,99786.81
2022-10-01T00:20:43.938Z,99782.22
2022-10-01T00:23:46.405Z,99778.31
2022-10-01T00:26:48.404Z,99769.38
2022-10-01T00:29:50.303Z,99774.97
2022-10-01T00:32:54.675Z,99773.34
2022-10-01T00:35:57.034Z,99770.63
2022-10-01T00:39:00.579Z,99769.00
2022-10-01T00:42:04.118Z,99754.69
2022-10-01T00:45:05.903Z,99767.16
2022-10-01T00:48:07.709Z,99759.13
2022-10-01T00:51:09.639Z,99758.69
2022-10-01T00:54:24.112Z,99751.34
2022-10-01T00:57:27.470Z,99751.72
2022-10-01T01:00:30.172Z,99755.38
2022-10-01T01:03:31.986Z,99741.78
2022-10-01T01:06:33.649Z,99734.97
2022-10-01T01:09:39.371Z,99731.09
2022-10-01T01:13:02.484Z,99721.59
2022-10-01T01:16:15.900Z,99706.94
2022-10-01T01:19:45.747Z,99708.81
2022-10-01T01:22:56.080Z,99698.50
2022-10-01T01:26:11.896Z,99698.25
2022-10-01T01:29:46.996Z,99697.31
2022-10-01T01:33:09.343Z,99687.25
2022-10-01T01:36:28.563Z,99684.53
2022-10-01T01:39:33.475Z,99687.38
2022-10-01T01:42:37.817Z,99677.53
2022-10-01T01:45:40.388Z,99670.75
2022-10-01T01:48:47.559Z,99668.53
2022-10-01T01:52:26.040Z,99660.13
2022-10-01T01:55:30.045Z,99654.13
2022-10-01T01:58:34.170Z,99643.97
2022-10-01T02:01:44.188Z,99640.56
2022-10-01T02:04:59.400Z,99638.66
2022-10-01T02:08:23.958Z,99634.34
2022-10-01T02:11:29.882Z,99629.06
2022-10-01T02:15:18.020Z,99626.47
2022-10-01T02:18:50.639Z,99619.44
2022-10-01T02:22:11.797Z,99621.75
2022-10-01T02:25:17.478Z,99614.69
2022-10-01T02:28:22.993Z,99611.19
2022-10-01T02:31:25.077Z,99612.69
2022-10-01T02:34:30.338Z,99602.25
2022-10-01T02:37:34.000Z,99596.03
2022-10-01T02:40:40.979Z,99593.19
2022-10-01T02:44:07.606Z,99584.50
2022-10-01T02:47:18.439Z,99580.84
2022-10-01T02:50:22.000Z,99580.47
2022-10-01T02:53:34.394Z,99571.75
2022-10-01T02:56:56.322Z,99571.50
2022-10-01T03:00:04.928Z,99568.69
2022-10-01T03:03:06.785Z,99560.66
2022-10-01T03:06:08.692Z,99550.06
2022-10-01T03:09:10.342Z,99552.78
2022-10-01T03:12:12.386Z,99546.81
2022-10-01T03:15:16.355Z,99542.44
2022-10-01T03:18:19.163Z,99543.16
2022-10-01T03:21:21.001Z,99531.63
2022-10-01T03:24:22.901Z,99527.81
2022-10-01T03:27:24.669Z,99536.22
2022-10-01T03:30:26.875Z,99534.91
2022-10-01T03:33:28.832Z,99532.44
2022-10-01T03:36:30.805Z,99528.50
2022-10-01T03:39:32.462Z,99527.28
2022-10-01T03:42:34.091Z,99499.69
2022-10-01T03:45:35.968Z,99499.28
2022-10-01T03:48:38.156Z,99492.25
2022-10-01T03:51:40.071Z,99490.47
2022-10-01T03:54:41.805Z,99503.91
2022-10-01T03:57:43.600Z,99503.78
2022-10-01T04:00:46.757Z,99492.75
2022-10-01T04:03:50.333Z,99487.19
2022-10-01T04:06:52.072Z,99492.47
2022-10-01T04:09:53.854Z,99475.19
2022-10-01T04:12:55.779Z,99472.09
2022-10-01T04:15:57.401Z,99464.47
2022-10-01T04:18:59.351Z,99461.38
2022-10-01T04:22:01.098Z,99456.78
2022-10-01T04:25:02.721Z,99437.44
2022-10-01T04:28:06.552Z,99447.78
2022-10-01T04:31:26.737Z,99422.66
2022-10-01T04:34:48.953Z,99416.03
2022-10-01T04:38:14.041Z,99411.28
2022-10-01T04:41:15.820Z,99409.94
2022-10-01T04:44:17.726Z,99402.88
2022-10-01T04:47:19.517Z,99398.81
2022-10-01T04:50:22.939Z,99394.31
2022-10-01T04:53:25.305Z,99386.03
2022-10-01T04:56:27.208Z,99386.44
2022-10-01T04:59:29.018Z,99374.50
2022-10-01T05:02:33.087Z,99367.72
2022-10-01T05:05:35.272Z,99363.78
2022-10-01T05:08:37.639Z,99371.09
2022-10-01T05:11:39.864Z,99371.38
2022-10-01T05:14:41.675Z,99362.44
2022-10-01T05:17:43.667Z,99362.44
2022-10-01T05:20:45.632Z,99365.00
2022-10-01T05:23:47.182Z,99371.09
2022-10-01T05:26:48.793Z,99355.91
2022-10-01T05:29:51.159Z,99363.53
2022-10-01T05:32:59.738Z,99366.22
2022-10-01T05:36:01.684Z,99364.59
2022-10-01T05:39:03.447Z,99357.69
2022-10-01T05:42:06.535Z,99365.94
2022-10-01T05:45:10.104Z,99375.44
2022-10-01T05:48:12.853Z,99375.44
2022-10-01T05:51:16.111Z,99367.59
2022-10-01T05:54:19.662Z,99363.53
2022-10-01T05:57:21.348Z,99353.19
2022-10-01T06:00:23.412Z,99349.66
2022-10-01T06:03:27.028Z,99349.41
2022-10-01T06:06:29.429Z,99344.25
2022-10-01T06:09:31.200Z,99337.44
2022-10-01T06:12:34.515Z,99339.09
2022-10-01T06:15:38.972Z,99326.19
2022-10-01T06:18:42.188Z,99320.06
2022-10-01T06:21:44.111Z,99317.22
2022-10-01T06:24:45.951Z,99320.75
2022-10-01T06:27:59.362Z,99311.09
2022-10-01T06:31:02.483Z,99307.69
2022-10-01T06:34:04.264Z,99306.59
2022-10-01T06:37:05.879Z,99301.31
2022-10-01T06:40:07.857Z,99310.66
2022-10-01T06:43:09.993Z,99308.63
2022-10-01T06:46:11.755Z,99290.44
2022-10-01T06:49:13.982Z,99302.38
2022-10-01T06:52:34.139Z,99290.16
2022-10-01T06:55:37.360Z,99286.63
2022-10-01T06:58:39.059Z,99289.88
2022-10-01T07:01:40.863Z,99284.28
2022-10-01T07:04:42.635Z,99282.00
2022-10-01T07:07:44.996Z,99262.56
2022-10-01T07:10:46.855Z,99261.75
2022-10-01T07:13:54.344Z,99258.88
2022-10-01T07:16:56.384Z,99260.34
2022-10-01T07:19:58.325Z,99255.19
2022-10-01T07:23:00.733Z,99252.63
2022-10-01T07:26:08.952Z,99255.50
2022-10-01T07:29:10.940Z,99252.75
2022-10-01T07:32:12.680Z,99249.34
2022-10-01T07:35:14.551Z,99253.97
2022-10-01T07:38:16.610Z,99259.34
2022-10-01T07:41:18.275Z,99250.09
2022-10-01T07:44:20.163Z,99252.38
2022-10-01T07:47:22.313Z,99256.31
2022-10-01T07:50:25.405Z,99261.97
2022-10-01T07:53:27.604Z,99256.00
2022-10-01T07:56:29.644Z,99260.75
2022-10-01T07:59:31.673Z,99255.28
2022-10-01T08:02:35.611Z,99268.56
2022-10-01T08:05:37.769Z,99264.88
2022-10-01T08:08:39.600Z,99264.09
2022-10-01T08:11:42.608Z,99256.03
2022-10-01T08:14:44.469Z,99267.16
2022-10-01T08:17:46.441Z,99253.13
2022-10-01T08:20:48.271Z,99267.09
2022-10-01T08:23:50.198Z,99269.38
2022-10-01T08:27:01.979Z,99267.53
2022-10-01T08:30:04.687Z,99267.47
2022-10-01T08:33:07.326Z,99261.69
2022-10-01T08:36:09.205Z,99262.97
2022-10-01T08:39:12.822Z,99263.84
2022-10-01T08:42:41.747Z,99265.72
2022-10-01T08:45:51.569Z,99274.47
2022-10-01T08:48:57.392Z,99266.13
2022-10-01T08:52:05.389Z,99272.03
2022-10-01T08:55:14.240Z,99277.38
2022-10-01T08:58:23.668Z,99277.94
2022-10-01T09:01:26.962Z,99284.50
2022-10-01T09:04:29.648Z,99276.91
2022-10-01T09:07:55.764Z,99288.56
2022-10-01T09:11:04.531Z,99288.75
2022-10-01T09:14:21.377Z,99300.19
2022-10-01T09:17:59.010Z,99299.94
2022-10-01T09:21:03.001Z,99291.75
2022-10-01T09:24:27.902Z,99297.81
2022-10-01T09:27:29.765Z,99295.78
2022-10-01T09:30:32.157Z,99297.28
2022-10-01T09:33:38.014Z,99301.91
2022-10-01T09:37:04.655Z,99303.28
2022-10-01T09:40:29.075Z,99275.00
2022-10-01T09:43:34.992Z,99269.03
2022-10-01T09:46:36.989Z,99266.00
2022-10-01T09:49:39.742Z,99270.06
2022-10-01T09:52:44.380Z,99259.94
2022-10-01T09:55:54.218Z,99272.44
2022-10-01T09:59:01.914Z,99272.44
2022-10-01T10:02:15.313Z,99280.72
2022-10-01T10:05:26.263Z,99276.94
2022-10-01T10:08:33.649Z,99276.78
2022-10-01T10:11:36.038Z,99276.63
2022-10-01T10:14:41.549Z,99279.84
2022-10-01T10:17:49.453Z,99288.25
2022-10-01T10:20:55.196Z,99280.06
2022-10-01T10:23:59.418Z,99290.09
2022-10-01T10:27:04.620Z,99292.50
2022-10-01T10:30:14.262Z,99304.69
2022-10-01T10:33:18.375Z,99314.72
2022-10-01T10:36:22.822Z,99317.56
2022-10-01T10:39:31.511Z,99313.56
2022-10-01T10:42:34.267Z,99319.69
2022-10-01T10:45:38.877Z,99320.59
2022-10-01T10:48:44.238Z,99318.13
2022-10-01T10:51:51.489Z,99321.59
2022-10-01T10:54:56.481Z,99330.56
2022-10-01T10:58:11.145Z,99336.78
2022-10-01T11:01:22.094Z,99334.63
2022-10-01T11:04:38.419Z,99343.56
2022-10-01T11:07:45.170Z,99349.66
2022-10-01T11:11:34.221Z,99350.56
2022-10-01T11:14:45.802Z,99348.88
2022-10-01T11:18:09.481Z,99346.19
2022-10-01T11:21:49.327Z,99343.56
2022-10-01T11:25:36.502Z,99351.44
2022-10-01T11:29:12.861Z,99348.69
2022-10-01T11:32:34.290Z,99343.75
2022-10-01T11:35:58.951Z,99354.81
2022-10-01T11:39:05.493Z,99364.25
2022-10-01T11:42:20.872Z,99362.25
2022-10-01T11:45:29.619Z,99364.16
2022-10-01T11:48:52.828Z,99365.59
2022-10-01T11:52:14.775Z,99361.03
2022-10-01T11:55:40.010Z,99361.91
2022-10-01T11:58:50.905Z,99372.19
2022-10-01T12:01:58.971Z,99365.34
2022-10-01T12:05:10.800Z,99364.88
2022-10-01T12:08:27.809Z,99375.06
2022-10-01T12:11:42.828Z,99376.13
2022-10-01T12:14:52.579Z,99376.69
2022-10-01T12:18:10.538Z,99381.03
2022-10-01T12:21:41.493Z,99365.03
2022-10-01T12:24:45.538Z,99375.31
2022-10-01T12:27:58.071Z,99370.00
2022-10-01T12:31:30.680Z,99368.34
2022-10-01T12:34:57.082Z,99369.31
2022-10-01T12:38:26.437Z,99362.38
2022-10-01T12:41:47.750Z,99370.28
2022-10-01T12:45:30.541Z,99371.41
2022-10-01T12:48:52.956Z,99365.00
2022-10-01T12:52:14.528Z,99367.69
2022-10-01T12:55:55.783Z,99366.06
2022-10-01T12:59:10.157Z,99365.81
2022-10-01T13:02:18.245Z,99364.78
2022-10-01T13:05:58.953Z,99369.63
2022-10-01T13:09:20.900Z,99371.75
2022-10-01T13:12:59.092Z,99377.53
2022-10-01T13:16:27.239Z,99377.19
2022-10-01T13:20:06.826Z,99365.09
2022-10-01T13:23:34.103Z,99381.91
2022-10-01T13:26:47.090Z,99394.47
2022-10-01T13:29:48.800Z,99384.56
2022-10-01T13:32:58.511Z,99392.19
2022-10-01T13:36:03.869Z,99393.78
2022-10-01T13:39:11.970Z,99391.56
2022-10-01T13:42:22.976Z,99400.06
2022-10-01T13:45:24.660Z,99383.44
2022-10-01T13:48:35.409Z,99391.94
2022-10-01T13:51:37.931Z,99392.41
2022-10-01T13:54:47.474Z,99395.66
2022-10-01T13:57:49.389Z,99392.97
2022-10-01T14:00:54.603Z,99524.56
2022-10-01T14:04:32.456Z,99541.38
2022-10-01T14:07:38.963Z,99537.84
2022-10-01T14:11:07.694Z,99528.25
2022-10-01T14:14:51.324Z,99511.97
2022-10-01T14:17:55.856Z,99517.56
2022-10-01T14:21:29.835Z,99519.19
2022-10-01T14:25:05.312Z,99517.84
2022-10-01T14:28:32.526Z,99520.22
2022-10-01T14:31:53.017Z,99531.13
2022-10-01T14:35:21.488Z,99522.31
2022-10-01T14:38:23.881Z,99526.00
2022-10-01T14:41:26.287Z,99530.88
2022-10-01T14:44:29.751Z,99529.25
2022-10-01T14:47:35.733Z,99536.72
2022-10-01T14:50:39.228Z,99531.25
2022-10-01T14:53:43.697Z,99529.31
2022-10-01T14:56:46.065Z,99538.06
2022-10-01T14:59:49.114Z,99546.50
2022-10-01T15:02:54.104Z,99540.00
2022-10-01T15:06:05.069Z,99533.38
2022-10-01T15:09:12.989Z,99536.59
2022-10-01T15:12:17.103Z,99519.59
2022-10-01T15:15:47.202Z,99522.66
2022-10-01T15:18:55.230Z,99534.66
2022-10-01T15:22:00.360Z,99530.13
2022-10-01T15:25:02.820Z,99535.63
2022-10-01T15:28:14.904Z,99545.91
2022-10-01T15:31:21.579Z,99550.28
2022-10-01T15:34:26.329Z,99545.59
2022-10-01T15:37:37.441Z,99557.28
2022-10-01T15:40:42.784Z,99556.69
2022-10-01T15:43:45.269Z,99562.22
2022-10-01T15:46:48.108Z,99567.47
2022-10-01T15:50:08.905Z,99576.47
2022-10-01T15:53:21.748Z,99591.44
2022-10-01T15:56:24.847Z,99596.69
2022-10-01T15:59:26.657Z,99607.19
2022-10-01T16:02:31.699Z,99594.78
2022-10-01T16:05:46.010Z,99608.69
2022-10-01T16:09:11.938Z,99621.00
2022-10-01T16:12:29.630Z,99631.09
2022-10-01T16:15:31.572Z,99636.09
2022-10-01T16:18:34.805Z,99642.16
2022-10-01T16:21:40.921Z,99647.47
2022-10-01T16:24:46.993Z,99645.78
2022-10-01T16:27:50.685Z,99645.63
2022-10-01T16:30:54.164Z,99660.47
2022-10-01T16:33:55.750Z,99669.03
2022-10-01T16:36:57.912Z,99678.94
2022-10-01T16:39:59.548Z,99683.38
2022-10-01T16:43:02.941Z,99684.41
2022-10-01T16:46:05.688Z,99693.72
2022-10-01T16:49:15.630Z,99711.50
2022-10-01T16:52:17.704Z,99728.03
2022-10-01T16:55:36.697Z,99738.69
2022-10-01T16:58:39.191Z,99742.91
2022-10-01T17:01:41.391Z,99757.88
2022-10-01T17:04:43.213Z,99763.88
2022-10-01T17:07:45.283Z,99737.41
2022-10-01T17:10:58.601Z,99742.94
2022-10-01T17:14:03.003Z,99749.41
2022-10-01T17:17:04.991Z,99748.84
2022-10-01T17:20:07.472Z,99760.31
2022-10-01T17:23:14.579Z,99761.97
2022-10-01T17:26:16.420Z,99762.53
2022-10-01T17:29:18.181Z,99768.78
2022-10-01T17:32:20.129Z,99769.28
2022-10-01T17:35:22.112Z,99776.25
2022-10-01T17:38:24.101Z,99786.22
2022-10-01T17:41:25.860Z,99790.31
2022-10-01T17:44:27.536Z,99793.63
2022-10-01T17:47:29.489Z,99801.13
2022-10-01T17:50:31.576Z,99803.88
2022-10-01T17:53:41.112Z,99805.13
2022-10-01T17:56:44.182Z,99820.66
2022-10-01T17:59:49.288Z,99837.78
2022-10-01T18:02:51.501Z,99846.25
2022-10-01T18:06:01.556Z,99864.16
2022-10-01T18:09:03.428Z,99859.38
2022-10-01T18:12:05.290Z,99882.72
2022-10-01T18:15:10.552Z,99880.94
2022-10-01T18:21:35.306Z,99879.31
2022-10-01T18:24:37.204Z,99899.22
2022-10-01T18:27:38.972Z,99900.72
2022-10-01T18:30:41.836Z,99904.53
2022-10-01T18:33:47.163Z,99894.03
2022-10-01T18:37:05.426Z,99903.31
2022-10-01T18:40:17.882Z,99911.19
2022-10-01T18:43:24.208Z,99905.19
2022-10-01T18:46:52.196Z,99909.09
2022-10-01T18:50:25.078Z,99911.13
2022-10-01T18:54:11.910Z,99924.56
2022-10-01T18:57:34.468Z,99927.66
2022-10-01T19:01:07.519Z,99935.00
2022-10-01T19:04:37.679Z,99939.84
2022-10-01T19:07:55.167Z,99951.41
2022-10-01T19:11:24.680Z,99962.91
2022-10-01T19:14:52.776Z,99966.94
2022-10-01T19:18:23.158Z,99967.97
2022-10-01T19:21:51.407Z,99978.13
2022-10-01T19:25:12.161Z,99987.00
2022-10-01T19:28:49.488Z,99997.19
2022-10-01T19:32:12.541Z,100005.38
2022-10-01T19:35:23.271Z,100008.47
2022-10-01T19:38:34.906Z,100010.91
2022-10-01T19:41:36.943Z,100015.97
2022-10-01T19:44:53.944Z,100019.06
2022-10-01T19:48:19.644Z,100019.25
2022-10-01T19:51:31.107Z,100023.72
2022-10-01T19:54:43.065Z,100020.06
2022-10-01T19:57:45.349Z,100035.25
2022-10-01T20:00:57.015Z,100030.47
2022-10-01T20:04:14.798Z,100035.88
2022-10-01T20:08:04.151Z,100039.84
2022-10-01T20:11:13.952Z,100056.03
2022-10-01T20:14:41.183Z,100058.81
2022-10-01T20:18:13.315Z,100067.19
2022-10-01T20:21:45.108Z,100060.44
2022-10-01T20:25:07.135Z,100070.00
2022-10-01T20:28:28.026Z,100074.09
2022-10-01T20:31:52.008Z,100070.81
2022-10-01T20:35:06.261Z,100070.31
2022-10-01T20:38:22.784Z,100077.28
2022-10-01T20:41:27.270Z,100083.84
2022-10-01T20:44:35.660Z,100089.66
2022-10-01T20:47:47.732Z,100095.22
2022-10-01T20:51:00.917Z,100097.69
2022-10-01T20:54:10.997Z,100094.53
2022-10-01T20:57:48.320Z,100107.97
2022-10-01T21:00:56.026Z,100114.47
2022-10-01T21:04:10.661Z,100118.56
2022-10-01T21:07:28.165Z,100121.66
2022-10-01T21:10:59.675Z,100127.16
2022-10-01T21:14:13.112Z,100126.28
2022-10-01T21:17:39.755Z,100119.53
2022-10-01T21:20:59.733Z,100133.94
2022-10-01T21:24:32.580Z,100134.72
2022-10-01T21:28:04.676Z,100135.59
2022-10-01T21:31:25.183Z,100134.00
2022-10-01T21:34:51.501Z,100135.41
2022-10-01T21:38:08.279Z,100133.50
2022-10-01T21:41:28.598Z,100140.56
2022-10-01T21:44:43.849Z,100152.75
2022-10-01T21:47:58.257Z,100147.81
2022-10-01T21:51:10.608Z,100159.25
2022-10-01T21:54:45.891Z,100168.78
2022-10-01T21:58:09.556Z,100173.94
2022-10-01T22:01:16.943Z,100169.84
2022-10-01T22:04:35.506Z,100168.81
2022-10-01T22:07:48.287Z,100173.50
2022-10-01T22:10:53.478Z,100181.88
2022-10-01T22:13:59.168Z,100176.38
2022-10-01T22:17:12.419Z,100182.69
2022-10-01T22:20:17.978Z,100187.41
2022-10-01T22:23:20.007Z,100188.59
2022-10-01T22:26:26.649Z,100191.19
2022-10-01T22:29:31.441Z,100190.53
2022-10-01T22:32:49.680Z,100187.34
2022-10-01T22:36:10.466Z,100197.94
2022-10-01T22:39:25.616Z,100196.78
2022-10-01T22:42:33.413Z,100201.16
2022-10-01T22:45:59.809Z,100203.47
2022-10-01T22:49:24.335Z,100195.97
2022-10-01T22:53:05.054Z,100209.00
2022-10-01T22:56:07.033Z,100212.84
2022-10-01T22:59:26.866Z,100222.97
2022-10-01T23:02:53.392Z,100223.16
2022-10-01T23:06:29.945Z,100212.50
2022-10-01T23:09:53.037Z,100216.84
2022-10-01T23:13:10.288Z,100219.53
2022-10-01T23:16:51.934Z,100219.59
2022-10-01T23:20:23.976Z,100217.59
2022-10-01T23:23:33.946Z,100225.13
2022-10-01T23:27:10.532Z,100228.06
2022-10-01T23:30:15.846Z,100222.88
2022-10-01T23:33:55.134Z,100226.75
2022-10-01T23:37:06.312Z,100227.97
2022-10-01T23:40:13.150Z,100227.50
2022-10-01T23:43:39.428Z,100233.50
2022-10-01T23:46:45.007Z,100229.13
2022-10-01T23:49:53.826Z,100240.63
2022-10-01T23:53:03.598Z,100246.19
2022-10-01T23:56:29.756Z,100236.91
2022-10-01T23:59:41.813Z,100241.59
